sensor_id;sensor_type;location;lat;lon;timestamp;P1;durP1;ratioP1;P2;durP2;ratioP2
1378;SDS011;683;48.738;9.226;2023-04-03T00:00:57;4.63;;;4.23;;
1378;SDS011;683;48.738;9.226;2023-04-03T00:03:24;4.07;;;3.77;;
1378;SDS011;683;48.738;9.226;2023-04-03T00:05:54;3.80;;;3.47;;
1378;SDS011;683;48.738;9.226;2023-04-03T00:08:23;5.57;;;4.13;;
1378;SDS011;683;48.738;9.226;2023-04-03T00:10:51;4.17;;;3.80;;
1378;SDS011;683;48.738;9.226;2023-04-03T00:13:19;3.63;;;3.33;;
1378;SDS011;683;48.738;9.226;2023-04-03T00:15:46;4.10;;;3.70;;
1378;SDS011;683;48.738;9.226;2023-04-03T00:18:13;4.23;;;3.47;;
1378;SDS011;683;48.738;9.226;2023-04-03T00:20:40;5.43;;;4.40;;
1378;SDS011;683;48.738;9.226;2023-04-03T00:23:07;4.80;;;4.10;;
1378;SDS011;683;48.738;9.226;2023-04-03T00:25:37;4.10;;;3.70;;
1378;SDS011;683;48.738;9.226;2023-04-03T00:28:06;3.83;;;3.13;;
1378;SDS011;683;48.738;9.226;2023-04-03T00:30:34;3.70;;;3.40;;
1378;SDS011;683;48.738;9.226;2023-04-03T00:33:01;5.03;;;4.50;;
1378;SDS011;683;48.738;9.226;2023-04-03T00:35:29;3.90;;;3.40;;
1378;SDS011;683;48.738;9.226;2023-04-03T00:37:56;3.50;;;3.20;;
1378;SDS011;683;48.738;9.226;2023-04-03T00:40:33;4.77;;;4.27;;
1378;SDS011;683;48.738;9.226;2023-04-03T00:43:01;4.20;;;3.90;;
1378;SDS011;683;48.738;9.226;2023-04-03T00:45:34;4.13;;;3.73;;
1378;SDS011;683;48.738;9.226;2023-04-03T00:48:03;3.70;;;3.40;;
1378;SDS011;683;48.738;9.226;2023-04-03T00:50:34;4.60;;;3.37;;
1378;SDS011;683;48.738;9.226;2023-04-03T00:53:03;3.63;;;3.33;;
1378;SDS011;683;48.738;9.226;2023-04-03T00:55:35;4.10;;;3.43;;
1378;SDS011;683;48.738;9.226;2023-04-03T00:58:05;3.97;;;3.67;;
1378;SDS011;683;48.738;9.226;2023-04-03T01:00:35;4.60;;;3.67;;
1378;SDS011;683;48.738;9.226;2023-04-03T01:03:05;4.43;;;3.53;;
1378;SDS011;683;48.738;9.226;2023-04-03T01:05:36;4.00;;;3.70;;
1378;SDS011;683;48.738;9.226;2023-04-03T01:08:03;4.40;;;4.00;;
1378;SDS011;683;48.738;9.226;2023-04-03T01:10:33;4.13;;;3.53;;
1378;SDS011;683;48.738;9.226;2023-04-03T01:13:00;4.33;;;3.90;;
1378;SDS011;683;48.738;9.226;2023-04-03T01:15:27;5.47;;;3.63;;
1378;SDS011;683;48.738;9.226;2023-04-03T01:17:59;4.03;;;3.63;;
1378;SDS011;683;48.738;9.226;2023-04-03T01:23:44;3.50;;;3.20;;
1378;SDS011;683;48.738;9.226;2023-04-03T01:26:34;4.73;;;4.13;;
1378;SDS011;683;48.738;9.226;2023-04-03T01:29:03;3.90;;;3.50;;
1378;SDS011;683;48.738;9.226;2023-04-03T01:31:31;4.47;;;4.07;;
1378;SDS011;683;48.738;9.226;2023-04-03T01:34:15;3.60;;;3.30;;
1378;SDS011;683;48.738;9.226;2023-04-03T01:36:43;4.53;;;3.57;;
1378;SDS011;683;48.738;9.226;2023-04-03T01:39:11;4.23;;;3.83;;
1378;SDS011;683;48.738;9.226;2023-04-03T01:41:40;4.90;;;3.60;;
1378;SDS011;683;48.738;9.226;2023-04-03T01:44:20;6.10;;;3.77;;
1378;SDS011;683;48.738;9.226;2023-04-03T01:46:49;8.27;;;3.67;;
1378;SDS011;683;48.738;9.226;2023-04-03T01:49:17;5.33;;;3.83;;
1378;SDS011;683;48.738;9.226;2023-04-03T01:51:44;4.30;;;4.00;;
1378;SDS011;683;48.738;9.226;2023-04-03T01:54:11;4.67;;;3.80;;
1378;SDS011;683;48.738;9.226;2023-04-03T01:56:39;5.00;;;4.47;;
1378;SDS011;683;48.738;9.226;2023-04-03T01:59:07;4.67;;;3.93;;
1378;SDS011;683;48.738;9.226;2023-04-03T02:01:34;4.20;;;3.80;;
1378;SDS011;683;48.738;9.226;2023-04-03T02:04:03;4.30;;;3.70;;
1378;SDS011;683;48.738;9.226;2023-04-03T02:06:30;4.63;;;3.60;;
1378;SDS011;683;48.738;9.226;2023-04-03T02:08:58;4.20;;;3.63;;
1378;SDS011;683;48.738;9.226;2023-04-03T02:11:25;6.13;;;4.70;;
1378;SDS011;683;48.738;9.226;2023-04-03T02:13:52;5.00;;;4.60;;
1378;SDS011;683;48.738;9.226;2023-04-03T02:16:23;4.87;;;4.43;;
1378;SDS011;683;48.738;9.226;2023-04-03T02:18:50;4.40;;;4.00;;
1378;SDS011;683;48.738;9.226;2023-04-03T02:21:19;4.30;;;3.70;;
1378;SDS011;683;48.738;9.226;2023-04-03T02:23:47;3.87;;;3.57;;
1378;SDS011;683;48.738;9.226;2023-04-03T02:26:17;3.83;;;3.50;;
1378;SDS011;683;48.738;9.226;2023-04-03T02:28:46;4.63;;;3.80;;
1378;SDS011;683;48.738;9.226;2023-04-03T02:31:13;4.77;;;4.30;;
1378;SDS011;683;48.738;9.226;2023-04-03T02:33:42;3.57;;;3.27;;
1378;SDS011;683;48.738;9.226;2023-04-03T02:36:12;4.43;;;3.87;;
1378;SDS011;683;48.738;9.226;2023-04-03T02:38:44;4.87;;;4.33;;
1378;SDS011;683;48.738;9.226;2023-04-03T02:41:16;8.50;;;4.87;;
1378;SDS011;683;48.738;9.226;2023-04-03T02:43:43;3.57;;;3.27;;
1378;SDS011;683;48.738;9.226;2023-04-03T02:46:10;6.17;;;4.50;;
1378;SDS011;683;48.738;9.226;2023-04-03T02:48:40;4.07;;;3.70;;
1378;SDS011;683;48.738;9.226;2023-04-03T02:51:07;3.80;;;3.40;;
1378;SDS011;683;48.738;9.226;2023-04-03T02:53:35;7.03;;;3.50;;
1378;SDS011;683;48.738;9.226;2023-04-03T02:56:10;4.90;;;4.50;;
1378;SDS011;683;48.738;9.226;2023-04-03T02:58:37;4.30;;;3.93;;
1378;SDS011;683;48.738;9.226;2023-04-03T03:01:06;4.83;;;3.87;;
1378;SDS011;683;48.738;9.226;2023-04-03T03:03:33;5.33;;;4.07;;
1378;SDS011;683;48.738;9.226;2023-04-03T03:06:01;5.30;;;4.77;;
1378;SDS011;683;48.738;9.226;2023-04-03T03:08:31;4.10;;;3.80;;
1378;SDS011;683;48.738;9.226;2023-04-03T03:10:58;4.20;;;3.80;;
1378;SDS011;683;48.738;9.226;2023-04-03T03:13:27;5.97;;;3.67;;
1378;SDS011;683;48.738;9.226;2023-04-03T03:15:54;3.40;;;3.20;;
1378;SDS011;683;48.738;9.226;2023-04-03T03:18:21;3.20;;;2.90;;
1378;SDS011;683;48.738;9.226;2023-04-03T03:20:52;3.90;;;3.33;;
1378;SDS011;683;48.738;9.226;2023-04-03T03:23:20;5.00;;;3.90;;
1378;SDS011;683;48.738;9.226;2023-04-03T03:25:54;4.30;;;3.90;;
1378;SDS011;683;48.738;9.226;2023-04-03T03:28:21;4.30;;;3.90;;
1378;SDS011;683;48.738;9.226;2023-04-03T03:30:50;11.60;;;4.10;;
1378;SDS011;683;48.738;9.226;2023-04-03T03:33:21;4.13;;;3.40;;
1378;SDS011;683;48.738;9.226;2023-04-03T03:35:48;3.50;;;3.30;;
1378;SDS011;683;48.738;9.226;2023-04-03T03:38:16;3.47;;;3.17;;
1378;SDS011;683;48.738;9.226;2023-04-03T03:40:43;3.60;;;3.30;;
1378;SDS011;683;48.738;9.226;2023-04-03T03:43:11;3.53;;;3.23;;
1378;SDS011;683;48.738;9.226;2023-04-03T03:45:38;3.33;;;3.13;;
1378;SDS011;683;48.738;9.226;2023-04-03T03:48:08;4.23;;;2.93;;
1378;SDS011;683;48.738;9.226;2023-04-03T03:50:35;4.80;;;3.13;;
1378;SDS011;683;48.738;9.226;2023-04-03T03:53:03;2.90;;;2.70;;
1378;SDS011;683;48.738;9.226;2023-04-03T03:55:30;3.23;;;2.93;;
1378;SDS011;683;48.738;9.226;2023-04-03T03:57:58;3.67;;;3.37;;
1378;SDS011;683;48.738;9.226;2023-04-03T04:00:29;3.73;;;3.43;;
1378;SDS011;683;48.738;9.226;2023-04-03T04:02:57;4.03;;;3.63;;
1378;SDS011;683;48.738;9.226;2023-04-03T04:05:26;3.80;;;3.50;;
1378;SDS011;683;48.738;9.226;2023-04-03T04:07:54;7.80;;;3.40;;
1378;SDS011;683;48.738;9.226;2023-04-03T04:10:22;4.10;;;3.60;;
1378;SDS011;683;48.738;9.226;2023-04-03T04:12:49;3.47;;;3.10;;
1378;SDS011;683;48.738;9.226;2023-04-03T04:15:22;4.37;;;3.97;;
1378;SDS011;683;48.738;9.226;2023-04-03T04:17:51;3.77;;;3.47;;
1378;SDS011;683;48.738;9.226;2023-04-03T04:20:19;3.43;;;3.13;;
1378;SDS011;683;48.738;9.226;2023-04-03T04:22:48;4.00;;;3.37;;
1378;SDS011;683;48.738;9.226;2023-04-03T04:25:17;4.27;;;3.20;;
1378;SDS011;683;48.738;9.226;2023-04-03T04:27:47;4.17;;;3.70;;
1378;SDS011;683;48.738;9.226;2023-04-03T04:30:16;3.97;;;3.57;;
1378;SDS011;683;48.738;9.226;2023-04-03T04:32:47;4.00;;;3.47;;
1378;SDS011;683;48.738;9.226;2023-04-03T04:35:14;3.40;;;3.10;;
1378;SDS011;683;48.738;9.226;2023-04-03T04:37:43;3.93;;;3.47;;
1378;SDS011;683;48.738;9.226;2023-04-03T04:40:12;4.57;;;4.00;;
1378;SDS011;683;48.738;9.226;2023-04-03T04:42:43;3.70;;;3.10;;
1378;SDS011;683;48.738;9.226;2023-04-03T04:45:10;8.13;;;3.20;;
1378;SDS011;683;48.738;9.226;2023-04-03T04:47:40;3.50;;;3.20;;
1378;SDS011;683;48.738;9.226;2023-04-03T04:50:10;3.60;;;3.30;;
1378;SDS011;683;48.738;9.226;2023-04-03T04:52:40;5.60;;;3.57;;
1378;SDS011;683;48.738;9.226;2023-04-03T04:55:08;3.20;;;2.90;;
1378;SDS011;683;48.738;9.226;2023-04-03T04:57:37;3.17;;;2.93;;
1378;SDS011;683;48.738;9.226;2023-04-03T05:00:05;3.87;;;3.47;;
1378;SDS011;683;48.738;9.226;2023-04-03T05:02:33;5.63;;;3.30;;
1378;SDS011;683;48.738;9.226;2023-04-03T05:05:00;3.47;;;3.17;;
1378;SDS011;683;48.738;9.226;2023-04-03T05:07:31;3.87;;;3.40;;
1378;SDS011;683;48.738;9.226;2023-04-03T05:09:59;3.67;;;3.37;;
1378;SDS011;683;48.738;9.226;2023-04-03T05:12:27;3.17;;;2.73;;
1378;SDS011;683;48.738;9.226;2023-04-03T05:14:59;3.80;;;3.10;;
1378;SDS011;683;48.738;9.226;2023-04-03T05:17:28;3.10;;;2.73;;
1378;SDS011;683;48.738;9.226;2023-04-03T05:19:57;3.23;;;2.93;;
1378;SDS011;683;48.738;9.226;2023-04-03T05:22:26;3.40;;;3.10;;
1378;SDS011;683;48.738;9.226;2023-04-03T05:24:57;2.93;;;2.70;;
1378;SDS011;683;48.738;9.226;2023-04-03T05:27:26;2.97;;;2.73;;
1378;SDS011;683;48.738;9.226;2023-04-03T05:29:55;4.40;;;3.17;;
1378;SDS011;683;48.738;9.226;2023-04-03T05:32:25;4.70;;;3.20;;
1378;SDS011;683;48.738;9.226;2023-04-03T05:35:13;3.03;;;2.73;;
1378;SDS011;683;48.738;9.226;2023-04-03T05:37:44;3.80;;;3.07;;
1378;SDS011;683;48.738;9.226;2023-04-03T05:40:19;4.27;;;2.90;;
1378;SDS011;683;48.738;9.226;2023-04-03T05:42:53;4.27;;;3.30;;
1378;SDS011;683;48.738;9.226;2023-04-03T05:45:25;4.40;;;2.73;;
1378;SDS011;683;48.738;9.226;2023-04-03T05:47:54;3.97;;;2.80;;
1378;SDS011;683;48.738;9.226;2023-04-03T05:50:22;2.90;;;2.70;;
1378;SDS011;683;48.738;9.226;2023-04-03T05:52:52;3.53;;;2.70;;
1378;SDS011;683;48.738;9.226;2023-04-03T05:55:21;3.20;;;2.90;;
1378;SDS011;683;48.738;9.226;2023-04-03T05:57:50;8.83;;;3.80;;
1378;SDS011;683;48.738;9.226;2023-04-03T06:00:20;3.40;;;2.57;;
1378;SDS011;683;48.738;9.226;2023-04-03T06:02:57;4.07;;;3.33;;
1378;SDS011;683;48.738;9.226;2023-04-03T06:05:25;2.97;;;2.40;;
1378;SDS011;683;48.738;9.226;2023-04-03T06:07:53;3.53;;;3.23;;
1378;SDS011;683;48.738;9.226;2023-04-03T06:10:22;4.23;;;3.60;;
1378;SDS011;683;48.738;9.226;2023-04-03T06:12:51;3.67;;;3.23;;
1378;SDS011;683;48.738;9.226;2023-04-03T06:15:20;3.50;;;3.10;;
1378;SDS011;683;48.738;9.226;2023-04-03T06:17:48;3.60;;;3.30;;
1378;SDS011;683;48.738;9.226;2023-04-03T06:20:17;3.23;;;3.03;;
1378;SDS011;683;48.738;9.226;2023-04-03T06:22:44;4.17;;;3.20;;
1378;SDS011;683;48.738;9.226;2023-04-03T06:25:11;4.77;;;3.50;;
1378;SDS011;683;48.738;9.226;2023-04-03T06:27:39;3.40;;;3.10;;
1378;SDS011;683;48.738;9.226;2023-04-03T06:30:08;5.63;;;4.13;;
1378;SDS011;683;48.738;9.226;2023-04-03T06:32:40;3.27;;;3.07;;
1378;SDS011;683;48.738;9.226;2023-04-03T06:35:10;3.37;;;3.07;;
1378;SDS011;683;48.738;9.226;2023-04-03T06:37:41;2.57;;;2.37;;
1378;SDS011;683;48.738;9.226;2023-04-03T06:40:12;7.80;;;4.03;;
1378;SDS011;683;48.738;9.226;2023-04-03T06:42:44;3.60;;;3.30;;
1378;SDS011;683;48.738;9.226;2023-04-03T06:45:17;5.10;;;3.70;;
1378;SDS011;683;48.738;9.226;2023-04-03T06:47:45;4.00;;;3.70;;
1378;SDS011;683;48.738;9.226;2023-04-03T06:50:12;3.73;;;3.40;;
1378;SDS011;683;48.738;9.226;2023-04-03T06:52:41;4.03;;;2.97;;
1378;SDS011;683;48.738;9.226;2023-04-03T06:55:09;4.30;;;3.30;;
1378;SDS011;683;48.738;9.226;2023-04-03T06:57:37;4.07;;;3.77;;
1378;SDS011;683;48.738;9.226;2023-04-03T07:00:06;4.60;;;3.13;;
1378;SDS011;683;48.738;9.226;2023-04-03T07:02:35;3.53;;;2.60;;
1378;SDS011;683;48.738;9.226;2023-04-03T07:05:02;3.03;;;2.73;;
1378;SDS011;683;48.738;9.226;2023-04-03T07:07:30;3.60;;;2.83;;
1378;SDS011;683;48.738;9.226;2023-04-03T07:10:00;4.50;;;3.17;;
1378;SDS011;683;48.738;9.226;2023-04-03T07:12:29;2.70;;;2.40;;
1378;SDS011;683;48.738;9.226;2023-04-03T07:14:57;3.17;;;2.90;;
1378;SDS011;683;48.738;9.226;2023-04-03T07:17:25;3.40;;;3.10;;
1378;SDS011;683;48.738;9.226;2023-04-03T07:19:53;3.40;;;2.87;;
1378;SDS011;683;48.738;9.226;2023-04-03T07:22:21;3.07;;;2.77;;
1378;SDS011;683;48.738;9.226;2023-04-03T07:24:51;3.10;;;2.80;;
1378;SDS011;683;48.738;9.226;2023-04-03T07:27:20;6.67;;;3.20;;
1378;SDS011;683;48.738;9.226;2023-04-03T07:29:47;4.73;;;3.17;;
1378;SDS011;683;48.738;9.226;2023-04-03T07:32:15;7.17;;;2.60;;
1378;SDS011;683;48.738;9.226;2023-04-03T07:34:42;6.50;;;2.57;;
1378;SDS011;683;48.738;9.226;2023-04-03T07:37:10;4.10;;;3.13;;
1378;SDS011;683;48.738;9.226;2023-04-03T07:39:38;4.83;;;3.00;;
1378;SDS011;683;48.738;9.226;2023-04-03T07:42:05;5.00;;;3.70;;
1378;SDS011;683;48.738;9.226;2023-04-03T07:44:34;4.63;;;3.23;;
1378;SDS011;683;48.738;9.226;2023-04-03T07:47:02;3.83;;;2.90;;
1378;SDS011;683;48.738;9.226;2023-04-03T07:49:36;3.20;;;2.90;;
1378;SDS011;683;48.738;9.226;2023-04-03T07:52:05;4.00;;;3.47;;
1378;SDS011;683;48.738;9.226;2023-04-03T07:54:35;4.60;;;2.90;;
1378;SDS011;683;48.738;9.226;2023-04-03T07:57:02;3.00;;;2.70;;
1378;SDS011;683;48.738;9.226;2023-04-03T07:59:30;2.90;;;2.70;;
1378;SDS011;683;48.738;9.226;2023-04-03T08:01:59;2.37;;;2.27;;
1378;SDS011;683;48.738;9.226;2023-04-03T08:04:26;5.17;;;3.07;;
1378;SDS011;683;48.738;9.226;2023-04-03T08:06:53;2.97;;;2.70;;
1378;SDS011;683;48.738;9.226;2023-04-03T08:09:20;3.27;;;2.50;;
1378;SDS011;683;48.738;9.226;2023-04-03T08:11:48;6.10;;;3.17;;
1378;SDS011;683;48.738;9.226;2023-04-03T08:14:18;3.37;;;3.17;;
1378;SDS011;683;48.738;9.226;2023-04-03T08:16:48;3.17;;;2.87;;
1378;SDS011;683;48.738;9.226;2023-04-03T08:19:16;5.07;;;2.87;;
1378;SDS011;683;48.738;9.226;2023-04-03T08:21:44;2.57;;;2.37;;
1378;SDS011;683;48.738;9.226;2023-04-03T08:24:12;3.40;;;2.60;;
1378;SDS011;683;48.738;9.226;2023-04-03T08:26:40;3.10;;;2.60;;
1378;SDS011;683;48.738;9.226;2023-04-03T08:29:10;2.90;;;2.70;;
1378;SDS011;683;48.738;9.226;2023-04-03T08:31:38;3.33;;;2.80;;
1378;SDS011;683;48.738;9.226;2023-04-03T08:34:05;3.47;;;2.60;;
1378;SDS011;683;48.738;9.226;2023-04-03T08:36:35;3.30;;;3.00;;
1378;SDS011;683;48.738;9.226;2023-04-03T08:39:04;2.87;;;2.67;;
1378;SDS011;683;48.738;9.226;2023-04-03T08:41:34;6.23;;;3.80;;
1378;SDS011;683;48.738;9.226;2023-04-03T08:44:10;4.33;;;2.60;;
1378;SDS011;683;48.738;9.226;2023-04-03T08:46:47;5.27;;;3.60;;
1378;SDS011;683;48.738;9.226;2023-04-03T08:49:29;3.47;;;3.17;;
1378;SDS011;683;48.738;9.226;2023-04-03T08:52:00;3.60;;;3.00;;
1378;SDS011;683;48.738;9.226;2023-04-03T08:54:33;3.33;;;3.03;;
1378;SDS011;683;48.738;9.226;2023-04-03T08:57:14;3.17;;;2.93;;
1378;SDS011;683;48.738;9.226;2023-04-03T08:59:42;3.40;;;2.70;;
1378;SDS011;683;48.738;9.226;2023-04-03T09:02:16;7.30;;;3.60;;
1378;SDS011;683;48.738;9.226;2023-04-03T09:04:51;2.40;;;2.20;;
1378;SDS011;683;48.738;9.226;2023-04-03T09:07:22;5.27;;;2.90;;
1378;SDS011;683;48.738;9.226;2023-04-03T09:09:57;4.37;;;3.27;;
1378;SDS011;683;48.738;9.226;2023-04-03T09:12:32;4.47;;;2.73;;
1378;SDS011;683;48.738;9.226;2023-04-03T09:15:05;6.43;;;2.87;;
1378;SDS011;683;48.738;9.226;2023-04-03T09:17:41;3.10;;;2.33;;
1378;SDS011;683;48.738;9.226;2023-04-03T09:20:18;4.43;;;3.00;;
1378;SDS011;683;48.738;9.226;2023-04-03T09:22:52;3.00;;;2.80;;
1378;SDS011;683;48.738;9.226;2023-04-03T09:25:21;3.87;;;2.63;;
1378;SDS011;683;48.738;9.226;2023-04-03T09:27:51;3.00;;;2.70;;
1378;SDS011;683;48.738;9.226;2023-04-03T09:30:20;5.47;;;2.97;;
1378;SDS011;683;48.738;9.226;2023-04-03T09:32:49;4.47;;;2.80;;
1378;SDS011;683;48.738;9.226;2023-04-03T09:35:19;3.33;;;3.03;;
1378;SDS011;683;48.738;9.226;2023-04-03T09:37:49;3.63;;;2.50;;
1378;SDS011;683;48.738;9.226;2023-04-03T09:40:32;3.50;;;2.77;;
1378;SDS011;683;48.738;9.226;2023-04-03T09:43:20;3.03;;;2.83;;
1378;SDS011;683;48.738;9.226;2023-04-03T09:45:50;2.77;;;2.50;;
1378;SDS011;683;48.738;9.226;2023-04-03T09:48:19;4.00;;;3.10;;
1378;SDS011;683;48.738;9.226;2023-04-03T09:50:58;8.23;;;2.67;;
1378;SDS011;683;48.738;9.226;2023-04-03T09:53:33;4.07;;;3.00;;
1378;SDS011;683;48.738;9.226;2023-04-03T09:56:18;2.93;;;2.73;;
1378;SDS011;683;48.738;9.226;2023-04-03T09:58:50;2.50;;;2.30;;
1378;SDS011;683;48.738;9.226;2023-04-03T10:01:32;4.07;;;3.23;;
1378;SDS011;683;48.738;9.226;2023-04-03T10:04:04;3.93;;;3.17;;
1378;SDS011;683;48.738;9.226;2023-04-03T10:06:34;3.00;;;2.80;;
1378;SDS011;683;48.738;9.226;2023-04-03T10:09:12;4.33;;;2.00;;
1378;SDS011;683;48.738;9.226;2023-04-03T10:14:36;3.07;;;2.77;;
1378;SDS011;683;48.738;9.226;2023-04-03T10:17:11;4.60;;;2.47;;
1378;SDS011;683;48.738;9.226;2023-04-03T10:19:45;3.60;;;2.80;;
1378;SDS011;683;48.738;9.226;2023-04-03T10:22:19;2.63;;;2.23;;
1378;SDS011;683;48.738;9.226;2023-04-03T10:24:52;2.90;;;2.60;;
1378;SDS011;683;48.738;9.226;2023-04-03T10:27:35;3.00;;;2.40;;
1378;SDS011;683;48.738;9.226;2023-04-03T10:30:15;2.60;;;2.40;;
1378;SDS011;683;48.738;9.226;2023-04-03T10:32:52;5.47;;;2.60;;
1378;SDS011;683;48.738;9.226;2023-04-03T10:35:32;2.77;;;2.57;;
1378;SDS011;683;48.738;9.226;2023-04-03T10:38:09;4.80;;;2.60;;
1378;SDS011;683;48.738;9.226;2023-04-03T10:40:45;3.00;;;1.70;;
1378;SDS011;683;48.738;9.226;2023-04-03T10:43:23;2.47;;;2.27;;
1378;SDS011;683;48.738;9.226;2023-04-03T10:45:57;3.67;;;2.90;;
1378;SDS011;683;48.738;9.226;2023-04-03T10:48:32;2.50;;;2.30;;
1378;SDS011;683;48.738;9.226;2023-04-03T10:51:16;2.70;;;2.50;;
1378;SDS011;683;48.738;9.226;2023-04-03T10:53:53;5.30;;;2.87;;
1378;SDS011;683;48.738;9.226;2023-04-03T10:56:30;9.47;;;3.17;;
1378;SDS011;683;48.738;9.226;2023-04-03T10:59:07;4.63;;;2.40;;
1378;SDS011;683;48.738;9.226;2023-04-03T11:01:50;4.10;;;2.30;;
1378;SDS011;683;48.738;9.226;2023-04-03T11:04:20;3.10;;;2.70;;
1378;SDS011;683;48.738;9.226;2023-04-03T11:06:51;4.33;;;2.83;;
1378;SDS011;683;48.738;9.226;2023-04-03T11:09:25;2.83;;;2.63;;
1378;SDS011;683;48.738;9.226;2023-04-03T11:11:57;2.23;;;2.03;;
1378;SDS011;683;48.738;9.226;2023-04-03T11:14:32;1.70;;;1.60;;
1378;SDS011;683;48.738;9.226;2023-04-03T11:17:05;3.87;;;2.90;;
1378;SDS011;683;48.738;9.226;2023-04-03T11:19:46;2.70;;;2.50;;
1378;SDS011;683;48.738;9.226;2023-04-03T11:22:21;2.03;;;1.93;;
1378;SDS011;683;48.738;9.226;2023-04-03T11:24:55;3.90;;;3.03;;
1378;SDS011;683;48.738;9.226;2023-04-03T11:27:33;3.20;;;1.87;;
1378;SDS011;683;48.738;9.226;2023-04-03T11:30:07;2.43;;;2.07;;
1378;SDS011;683;48.738;9.226;2023-04-03T11:32:59;2.80;;;2.53;;
1378;SDS011;683;48.738;9.226;2023-04-03T11:35:42;2.30;;;1.83;;
1378;SDS011;683;48.738;9.226;2023-04-03T11:38:13;3.37;;;2.03;;
1378;SDS011;683;48.738;9.226;2023-04-03T11:40:48;1.83;;;1.73;;
1378;SDS011;683;48.738;9.226;2023-04-03T11:43:21;1.50;;;1.40;;
1378;SDS011;683;48.738;9.226;2023-04-03T11:45:54;6.13;;;2.17;;
1378;SDS011;683;48.738;9.226;2023-04-03T12:00:48;1.93;;;1.80;;
1378;SDS011;683;48.738;9.226;2023-04-03T12:09:32;3.77;;;1.77;;
1378;SDS011;683;48.738;9.226;2023-04-03T12:12:28;2.43;;;1.60;;
1378;SDS011;683;48.738;9.226;2023-04-03T12:21:11;2.83;;;2.13;;
1378;SDS011;683;48.738;9.226;2023-04-03T12:26:50;2.80;;;2.10;;
1378;SDS011;683;48.738;9.226;2023-04-03T12:29:33;2.47;;;2.27;;
1378;SDS011;683;48.738;9.226;2023-04-03T12:32:08;5.40;;;1.97;;
1378;SDS011;683;48.738;9.226;2023-04-03T12:34:50;2.60;;;2.37;;
1378;SDS011;683;48.738;9.226;2023-04-03T12:37:39;2.87;;;2.27;;
1378;SDS011;683;48.738;9.226;2023-04-03T12:40:21;3.47;;;1.90;;
1378;SDS011;683;48.738;9.226;2023-04-03T12:42:58;7.27;;;3.13;;
1378;SDS011;683;48.738;9.226;2023-04-03T12:45:41;2.53;;;2.10;;
1378;SDS011;683;48.738;9.226;2023-04-03T12:48:15;4.20;;;2.10;;
1378;SDS011;683;48.738;9.226;2023-04-03T12:50:44;1.93;;;1.80;;
1378;SDS011;683;48.738;9.226;2023-04-03T12:53:15;2.93;;;2.50;;
1378;SDS011;683;48.738;9.226;2023-04-03T12:55:45;2.27;;;2.07;;
1378;SDS011;683;48.738;9.226;2023-04-03T12:58:13;4.20;;;1.87;;
1378;SDS011;683;48.738;9.226;2023-04-03T13:00:45;2.80;;;2.23;;
1378;SDS011;683;48.738;9.226;2023-04-03T13:03:21;2.40;;;2.20;;
1378;SDS011;683;48.738;9.226;2023-04-03T13:05:52;5.10;;;2.07;;
1378;SDS011;683;48.738;9.226;2023-04-03T13:08:26;5.73;;;2.17;;
1378;SDS011;683;48.738;9.226;2023-04-03T13:10:55;2.63;;;2.20;;
1378;SDS011;683;48.738;9.226;2023-04-03T13:13:24;2.87;;;2.33;;
1378;SDS011;683;48.738;9.226;2023-04-03T13:15:52;2.63;;;2.40;;
1378;SDS011;683;48.738;9.226;2023-04-03T13:21:05;2.70;;;2.50;;
1378;SDS011;683;48.738;9.226;2023-04-03T13:23:40;2.10;;;1.90;;
1378;SDS011;683;48.738;9.226;2023-04-03T13:26:09;3.37;;;2.20;;
1378;SDS011;683;48.738;9.226;2023-04-03T13:28:42;4.50;;;1.87;;
1378;SDS011;683;48.738;9.226;2023-04-03T13:31:18;5.20;;;2.50;;
1378;SDS011;683;48.738;9.226;2023-04-03T13:33:53;2.70;;;2.20;;
1378;SDS011;683;48.738;9.226;2023-04-03T13:36:26;2.00;;;1.90;;
1378;SDS011;683;48.738;9.226;2023-04-03T13:39:02;3.73;;;1.80;;
1378;SDS011;683;48.738;9.226;2023-04-03T13:41:33;4.60;;;2.33;;
1378;SDS011;683;48.738;9.226;2023-04-03T13:46:54;2.47;;;1.90;;
1378;SDS011;683;48.738;9.226;2023-04-03T13:49:27;3.30;;;2.17;;
1378;SDS011;683;48.738;9.226;2023-04-03T13:52:00;3.00;;;2.70;;
1378;SDS011;683;48.738;9.226;2023-04-03T13:54:32;3.50;;;2.23;;
1378;SDS011;683;48.738;9.226;2023-04-03T13:57:00;4.47;;;2.40;;
1378;SDS011;683;48.738;9.226;2023-04-03T13:59:32;2.17;;;1.90;;
1378;SDS011;683;48.738;9.226;2023-04-03T14:02:10;2.60;;;2.40;;
1378;SDS011;683;48.738;9.226;2023-04-03T14:04:51;3.67;;;2.10;;
1378;SDS011;683;48.738;9.226;2023-04-03T14:07:23;3.13;;;2.87;;
1378;SDS011;683;48.738;9.226;2023-04-03T14:09:53;3.03;;;2.53;;
1378;SDS011;683;48.738;9.226;2023-04-03T14:12:21;2.80;;;2.20;;
1378;SDS011;683;48.738;9.226;2023-04-03T14:14:55;2.60;;;2.40;;
1378;SDS011;683;48.738;9.226;2023-04-03T14:17:23;1.83;;;1.73;;
1378;SDS011;683;48.738;9.226;2023-04-03T14:19:52;2.67;;;1.80;;
1378;SDS011;683;48.738;9.226;2023-04-03T14:22:22;6.13;;;3.23;;
1378;SDS011;683;48.738;9.226;2023-04-03T14:24:50;2.30;;;2.10;;
1378;SDS011;683;48.738;9.226;2023-04-03T14:27:22;4.80;;;2.00;;
1378;SDS011;683;48.738;9.226;2023-04-03T14:29:51;3.27;;;2.30;;
1378;SDS011;683;48.738;9.226;2023-04-03T14:32:22;3.37;;;2.63;;
1378;SDS011;683;48.738;9.226;2023-04-03T14:34:50;3.27;;;3.03;;
1378;SDS011;683;48.738;9.226;2023-04-03T14:37:19;3.73;;;1.93;;
1378;SDS011;683;48.738;9.226;2023-04-03T14:39:48;2.47;;;2.27;;
1378;SDS011;683;48.738;9.226;2023-04-03T14:42:18;2.33;;;1.90;;
1378;SDS011;683;48.738;9.226;2023-04-03T14:44:47;6.17;;;2.87;;
1378;SDS011;683;48.738;9.226;2023-04-03T14:47:15;4.10;;;1.70;;
1378;SDS011;683;48.738;9.226;2023-04-03T14:49:45;3.97;;;2.63;;
1378;SDS011;683;48.738;9.226;2023-04-03T14:52:16;3.20;;;2.23;;
1378;SDS011;683;48.738;9.226;2023-04-03T14:54:45;2.57;;;1.90;;
1378;SDS011;683;48.738;9.226;2023-04-03T14:57:15;1.93;;;1.80;;
1378;SDS011;683;48.738;9.226;2023-04-03T14:59:44;3.80;;;2.87;;
1378;SDS011;683;48.738;9.226;2023-04-03T15:02:22;3.93;;;2.43;;
1378;SDS011;683;48.738;9.226;2023-04-03T15:04:52;2.50;;;2.30;;
1378;SDS011;683;48.738;9.226;2023-04-03T15:07:23;2.43;;;2.23;;
1378;SDS011;683;48.738;9.226;2023-04-03T15:09:51;3.80;;;2.57;;
1378;SDS011;683;48.738;9.226;2023-04-03T15:12:21;3.90;;;2.00;;
1378;SDS011;683;48.738;9.226;2023-04-03T15:14:50;3.17;;;2.50;;
1378;SDS011;683;48.738;9.226;2023-04-03T15:17:18;3.03;;;2.27;;
1378;SDS011;683;48.738;9.226;2023-04-03T15:19:48;4.47;;;2.80;;
1378;SDS011;683;48.738;9.226;2023-04-03T15:22:17;2.57;;;2.30;;
1378;SDS011;683;48.738;9.226;2023-04-03T15:24:45;3.67;;;2.53;;
1378;SDS011;683;48.738;9.226;2023-04-03T15:27:13;2.67;;;2.07;;
1378;SDS011;683;48.738;9.226;2023-04-03T15:29:41;2.87;;;2.63;;
1378;SDS011;683;48.738;9.226;2023-04-03T15:32:11;2.70;;;2.40;;
1378;SDS011;683;48.738;9.226;2023-04-03T15:34:38;2.70;;;2.23;;
1378;SDS011;683;48.738;9.226;2023-04-03T15:37:06;2.40;;;2.20;;
1378;SDS011;683;48.738;9.226;2023-04-03T15:39:35;3.70;;;2.57;;
1378;SDS011;683;48.738;9.226;2023-04-03T15:42:04;2.90;;;2.23;;
1378;SDS011;683;48.738;9.226;2023-04-03T15:44:32;2.80;;;2.27;;
1378;SDS011;683;48.738;9.226;2023-04-03T15:47:00;3.43;;;2.33;;
1378;SDS011;683;48.738;9.226;2023-04-03T15:49:30;2.70;;;2.43;;
1378;SDS011;683;48.738;9.226;2023-04-03T15:51:59;5.30;;;2.90;;
1378;SDS011;683;48.738;9.226;2023-04-03T15:54:26;2.30;;;2.10;;
1378;SDS011;683;48.738;9.226;2023-04-03T15:56:55;3.10;;;2.30;;
1378;SDS011;683;48.738;9.226;2023-04-03T15:59:23;2.80;;;2.37;;
1378;SDS011;683;48.738;9.226;2023-04-03T16:01:53;4.80;;;2.33;;
1378;SDS011;683;48.738;9.226;2023-04-03T16:04:20;2.60;;;2.23;;
1378;SDS011;683;48.738;9.226;2023-04-03T16:06:49;2.20;;;2.00;;
1378;SDS011;683;48.738;9.226;2023-04-03T16:09:19;5.67;;;2.83;;
1378;SDS011;683;48.738;9.226;2023-04-03T16:11:46;3.17;;;2.40;;
1378;SDS011;683;48.738;9.226;2023-04-03T16:14:13;3.53;;;1.93;;
1378;SDS011;683;48.738;9.226;2023-04-03T16:16:41;3.17;;;2.23;;
1378;SDS011;683;48.738;9.226;2023-04-03T16:19:08;2.13;;;1.70;;
1378;SDS011;683;48.738;9.226;2023-04-03T16:21:36;2.63;;;2.20;;
1378;SDS011;683;48.738;9.226;2023-04-03T16:24:05;2.50;;;1.90;;
1378;SDS011;683;48.738;9.226;2023-04-03T16:26:32;2.77;;;2.57;;
1378;SDS011;683;48.738;9.226;2023-04-03T16:28:59;1.93;;;1.70;;
1378;SDS011;683;48.738;9.226;2023-04-03T16:31:29;2.13;;;1.80;;